sensor_id;sensor_type;location;lat;lon;timestamp;temperature;humidity
46552;DHT22;32278;51.810;4.712;2023-02-15T00:01:14;5.00;99.90
46552;DHT22;32278;51.810;4.712;2023-02-15T00:03:39;5.00;99.90
46552;DHT22;32278;51.810;4.712;2023-02-15T00:06:05;5.00;99.90
46552;DHT22;32278;51.810;4.712;2023-02-15T00:08:31;4.90;99.90
46552;DHT22;32278;51.810;4.712;2023-02-15T00:11:23;4.90;99.90
46552;DHT22;32278;51.810;4.712;2023-02-15T00:14:23;4.80;99.90
46552;DHT22;32278;51.810;4.712;2023-02-15T00:16:50;4.80;99.90
46552;DHT22;32278;51.810;4.712;2023-02-15T00:19:18;4.80;99.90
46552;DHT22;32278;51.810;4.712;2023-02-15T00:21:44;4.80;99.90
46552;DHT22;32278;51.810;4.712;2023-02-15T00:24:12;4.80;99.90
46552;DHT22;32278;51.810;4.712;2023-02-15T00:26:39;4.90;99.90
46552;DHT22;32278;51.810;4.712;2023-02-15T00:29:05;4.80;99.90
46552;DHT22;32278;51.810;4.712;2023-02-15T00:31:32;4.80;99.90
46552;DHT22;32278;51.810;4.712;2023-02-15T00:34:03;4.80;99.90
46552;DHT22;32278;51.810;4.712;2023-02-15T00:36:29;4.80;99.90
46552;DHT22;32278;51.810;4.712;2023-02-15T00:38:55;4.70;99.90
46552;DHT22;32278;51.810;4.712;2023-02-15T00:41:21;4.70;99.90
46552;DHT22;32278;51.810;4.712;2023-02-15T00:43:46;4.60;99.90
46552;DHT22;32278;51.810;4.712;2023-02-15T00:46:12;4.60;99.90
46552;DHT22;32278;51.810;4.712;2023-02-15T00:48:37;4.70;99.90
46552;DHT22;32278;51.810;4.712;2023-02-15T00:51:03;4.60;99.90
46552;DHT22;32278;51.810;4.712;2023-02-15T00:53:29;4.50;99.90
46552;DHT22;32278;51.810;4.712;2023-02-15T00:55:55;4.50;99.90
46552;DHT22;32278;51.810;4.712;2023-02-15T00:58:21;4.50;99.90
46552;DHT22;32278;51.810;4.712;2023-02-15T01:00:47;4.60;99.90
46552;DHT22;32278;51.810;4.712;2023-02-15T01:03:14;4.70;99.90
46552;DHT22;32278;51.810;4.712;2023-02-15T01:05:40;4.60;99.90
46552;DHT22;32278;51.810;4.712;2023-02-15T01:08:06;4.70;99.90
46552;DHT22;32278;51.810;4.712;2023-02-15T01:10:33;4.70;99.90
46552;DHT22;32278;51.810;4.712;2023-02-15T01:12:59;4.70;99.90
46552;DHT22;32278;51.810;4.712;2023-02-15T01:15:25;4.60;99.90
46552;DHT22;32278;51.810;4.712;2023-02-15T01:17:50;4.50;99.90
46552;DHT22;32278;51.810;4.712;2023-02-15T01:20:20;4.50;99.90
46552;DHT22;32278;51.810;4.712;2023-02-15T01:22:46;4.50;99.90
46552;DHT22;32278;51.810;4.712;2023-02-15T01:25:15;4.60;99.90
46552;DHT22;32278;51.810;4.712;2023-02-15T01:27:41;4.60;99.90
46552;DHT22;32278;51.810;4.712;2023-02-15T01:30:07;4.50;99.90
46552;DHT22;32278;51.810;4.712;2023-02-15T01:32:33;4.60;99.90
46552;DHT22;32278;51.810;4.712;2023-02-15T01:34:58;4.40;99.90
46552;DHT22;32278;51.810;4.712;2023-02-15T01:37:24;4.50;99.90
46552;DHT22;32278;51.810;4.712;2023-02-15T01:39:49;4.60;99.90
46552;DHT22;32278;51.810;4.712;2023-02-15T01:42:21;4.50;99.90
46552;DHT22;32278;51.810;4.712;2023-02-15T01:48:04;4.40;99.90
46552;DHT22;32278;51.810;4.712;2023-02-15T01:52:58;4.30;99.90
46552;DHT22;32278;51.810;4.712;2023-02-15T01:55:48;4.20;99.90
46552;DHT22;32278;51.810;4.712;2023-02-15T01:58:15;4.20;99.90
46552;DHT22;32278;51.810;4.712;2023-02-15T02:00:41;4.10;99.90
46552;DHT22;32278;51.810;4.712;2023-02-15T02:03:07;4.10;99.90
46552;DHT22;32278;51.810;4.712;2023-02-15T02:05:33;4.20;99.90
46552;DHT22;32278;51.810;4.712;2023-02-15T02:08:00;4.20;99.90
46552;DHT22;32278;51.810;4.712;2023-02-15T02:10:27;4.30;99.90
46552;DHT22;32278;51.810;4.712;2023-02-15T02:12:56;4.30;99.90
46552;DHT22;32278;51.810;4.712;2023-02-15T02:24:34;4.10;99.90
46552;DHT22;32278;51.810;4.712;2023-02-15T02:27:21;4.20;99.90
46552;DHT22;32278;51.810;4.712;2023-02-15T02:29:57;4.20;99.90
46552;DHT22;32278;51.810;4.712;2023-02-15T02:32:51;4.10;99.90
46552;DHT22;32278;51.810;4.712;2023-02-15T02:38:39;4.10;99.90
46552;DHT22;32278;51.810;4.712;2023-02-15T02:41:17;4.00;99.90
46552;DHT22;32278;51.810;4.712;2023-02-15T02:46:32;3.90;99.90
46552;DHT22;32278;51.810;4.712;2023-02-15T02:49:01;3.90;99.90
46552;DHT22;32278;51.810;4.712;2023-02-15T02:51:26;4.10;99.90
46552;DHT22;32278;51.810;4.712;2023-02-15T02:53:54;4.00;99.90
46552;DHT22;32278;51.810;4.712;2023-02-15T02:56:39;4.10;99.90
46552;DHT22;32278;51.810;4.712;2023-02-15T02:59:12;4.10;99.90
46552;DHT22;32278;51.810;4.712;2023-02-15T03:01:46;4.00;99.90
46552;DHT22;32278;51.810;4.712;2023-02-15T03:04:17;4.00;99.90
46552;DHT22;32278;51.810;4.712;2023-02-15T03:07:11;4.00;99.90
46552;DHT22;32278;51.810;4.712;2023-02-15T03:09:37;3.90;99.90
46552;DHT22;32278;51.810;4.712;2023-02-15T03:12:08;4.00;99.90
46552;DHT22;32278;51.810;4.712;2023-02-15T03:14:35;3.80;99.90
46552;DHT22;32278;51.810;4.712;2023-02-15T03:17:03;3.90;99.90
46552;DHT22;32278;51.810;4.712;2023-02-15T03:19:32;3.90;99.90
46552;DHT22;32278;51.810;4.712;2023-02-15T03:22:20;3.90;99.90
46552;DHT22;32278;51.810;4.712;2023-02-15T03:25:04;3.90;99.90
46552;DHT22;32278;51.810;4.712;2023-02-15T03:27:36;3.90;99.90
46552;DHT22;32278;51.810;4.712;2023-02-15T03:30:04;3.80;99.90
46552;DHT22;32278;51.810;4.712;2023-02-15T03:32:32;3.80;99.90
46552;DHT22;32278;51.810;4.712;2023-02-15T03:34:58;3.90;99.90
46552;DHT22;32278;51.810;4.712;2023-02-15T03:37:32;3.80;99.90
46552;DHT22;32278;51.810;4.712;2023-02-15T03:43:02;3.80;99.90
46552;DHT22;32278;51.810;4.712;2023-02-15T03:45:31;3.80;99.90
46552;DHT22;32278;51.810;4.712;2023-02-15T03:47:59;3.70;99.90
46552;DHT22;32278;51.810;4.712;2023-02-15T03:50:28;3.70;99.90
46552;DHT22;32278;51.810;4.712;2023-02-15T03:53:15;3.60;99.90
46552;DHT22;32278;51.810;4.712;2023-02-15T03:55:46;3.60;99.90
46552;DHT22;32278;51.810;4.712;2023-02-15T03:58:12;3.70;99.90
46552;DHT22;32278;51.810;4.712;2023-02-15T04:00:59;3.80;99.90
46552;DHT22;32278;51.810;4.712;2023-02-15T04:04:00;3.80;99.90
46552;DHT22;32278;51.810;4.712;2023-02-15T04:06:26;3.80;99.90
46552;DHT22;32278;51.810;4.712;2023-02-15T04:08:52;3.80;99.90
46552;DHT22;32278;51.810;4.712;2023-02-15T04:11:36;3.90;99.90
46552;DHT22;32278;51.810;4.712;2023-02-15T04:14:01;3.80;99.90
46552;DHT22;32278;51.810;4.712;2023-02-15T04:16:47;3.80;99.90
46552;DHT22;32278;51.810;4.712;2023-02-15T04:19:12;3.80;99.90
46552;DHT22;32278;51.810;4.712;2023-02-15T04:21:56;3.90;99.90
46552;DHT22;32278;51.810;4.712;2023-02-15T04:24:40;3.80;99.90
46552;DHT22;32278;51.810;4.712;2023-02-15T04:27:24;3.90;99.90
46552;DHT22;32278;51.810;4.712;2023-02-15T04:29:50;3.90;99.90
46552;DHT22;32278;51.810;4.712;2023-02-15T04:32:15;4.00;99.90
46552;DHT22;32278;51.810;4.712;2023-02-15T04:34:41;4.00;99.90
46552;DHT22;32278;51.810;4.712;2023-02-15T04:37:06;4.10;99.90
46552;DHT22;32278;51.810;4.712;2023-02-15T04:39:32;4.10;99.90
46552;DHT22;32278;51.810;4.712;2023-02-15T04:41:57;3.90;99.90
46552;DHT22;32278;51.810;4.712;2023-02-15T04:44:23;3.90;99.90
46552;DHT22;32278;51.810;4.712;2023-02-15T04:46:48;3.90;99.90
46552;DHT22;32278;51.810;4.712;2023-02-15T04:49:14;4.00;99.90
46552;DHT22;32278;51.810;4.712;2023-02-15T04:51:39;4.00;99.90
46552;DHT22;32278;51.810;4.712;2023-02-15T04:54:05;4.00;99.90
46552;DHT22;32278;51.810;4.712;2023-02-15T04:56:31;3.90;99.90
46552;DHT22;32278;51.810;4.712;2023-02-15T04:58:58;3.90;99.90
46552;DHT22;32278;51.810;4.712;2023-02-15T05:01:23;3.90;99.90
46552;DHT22;32278;51.810;4.712;2023-02-15T05:03:49;3.90;99.90
46552;DHT22;32278;51.810;4.712;2023-02-15T05:06:14;3.90;99.90
46552;DHT22;32278;51.810;4.712;2023-02-15T05:08:40;3.80;99.90
46552;DHT22;32278;51.810;4.712;2023-02-15T05:11:05;3.80;99.90
46552;DHT22;32278;51.810;4.712;2023-02-15T05:13:31;3.80;99.90
46552;DHT22;32278;51.810;4.712;2023-02-15T05:15:56;3.70;99.90
46552;DHT22;32278;51.810;4.712;2023-02-15T05:18:22;3.80;99.90
46552;DHT22;32278;51.810;4.712;2023-02-15T05:20:48;3.80;99.90
46552;DHT22;32278;51.810;4.712;2023-02-15T05:23:14;3.70;99.90
46552;DHT22;32278;51.810;4.712;2023-02-15T05:25:40;3.60;99.90
46552;DHT22;32278;51.810;4.712;2023-02-15T05:28:26;3.70;99.90
46552;DHT22;32278;51.810;4.712;2023-02-15T05:31:14;3.70;99.90
46552;DHT22;32278;51.810;4.712;2023-02-15T05:33:40;3.60;99.90
46552;DHT22;32278;51.810;4.712;2023-02-15T05:36:06;3.60;99.90
46552;DHT22;32278;51.810;4.712;2023-02-15T05:38:32;3.60;99.90
46552;DHT22;32278;51.810;4.712;2023-02-15T05:40:58;3.70;99.90
46552;DHT22;32278;51.810;4.712;2023-02-15T05:43:24;3.80;99.90
46552;DHT22;32278;51.810;4.712;2023-02-15T05:45:54;3.80;99.90
46552;DHT22;32278;51.810;4.712;2023-02-15T05:48:21;3.90;99.90
46552;DHT22;32278;51.810;4.712;2023-02-15T05:51:06;3.70;99.90
46552;DHT22;32278;51.810;4.712;2023-02-15T05:53:35;3.70;99.90
46552;DHT22;32278;51.810;4.712;2023-02-15T05:56:02;3.70;99.90
46552;DHT22;32278;51.810;4.712;2023-02-15T05:58:30;3.70;99.90
46552;DHT22;32278;51.810;4.712;2023-02-15T06:00:56;3.70;99.90
46552;DHT22;32278;51.810;4.712;2023-02-15T06:03:23;3.70;99.90
46552;DHT22;32278;51.810;4.712;2023-02-15T06:05:51;3.60;99.90
46552;DHT22;32278;51.810;4.712;2023-02-15T06:08:16;3.60;99.90
46552;DHT22;32278;51.810;4.712;2023-02-15T06:10:42;3.60;99.90
46552;DHT22;32278;51.810;4.712;2023-02-15T06:13:07;3.70;99.90
46552;DHT22;32278;51.810;4.712;2023-02-15T06:15:33;3.80;99.90
46552;DHT22;32278;51.810;4.712;2023-02-15T06:17:59;3.70;99.90
46552;DHT22;32278;51.810;4.712;2023-02-15T06:20:24;3.70;99.90
46552;DHT22;32278;51.810;4.712;2023-02-15T06:22:50;3.60;99.90
46552;DHT22;32278;51.810;4.712;2023-02-15T06:25:15;3.70;99.90
46552;DHT22;32278;51.810;4.712;2023-02-15T06:27:42;3.60;99.90
46552;DHT22;32278;51.810;4.712;2023-02-15T06:30:09;3.60;99.90
46552;DHT22;32278;51.810;4.712;2023-02-15T06:32:35;3.60;99.90
46552;DHT22;32278;51.810;4.712;2023-02-15T06:35:00;3.60;99.90
46552;DHT22;32278;51.810;4.712;2023-02-15T06:37:26;3.50;99.90
46552;DHT22;32278;51.810;4.712;2023-02-15T06:39:52;3.60;99.90
46552;DHT22;32278;51.810;4.712;2023-02-15T06:42:17;3.50;99.90
46552;DHT22;32278;51.810;4.712;2023-02-15T06:44:43;3.60;99.90
46552;DHT22;32278;51.810;4.712;2023-02-15T06:47:09;3.50;99.90
46552;DHT22;32278;51.810;4.712;2023-02-15T06:49:36;3.50;99.90
46552;DHT22;32278;51.810;4.712;2023-02-15T06:52:01;3.50;99.90
46552;DHT22;32278;51.810;4.712;2023-02-15T06:54:27;3.50;99.90
46552;DHT22;32278;51.810;4.712;2023-02-15T06:56:52;3.50;99.90
46552;DHT22;32278;51.810;4.712;2023-02-15T06:59:18;3.60;99.90
46552;DHT22;32278;51.810;4.712;2023-02-15T07:01:43;3.70;99.90
46552;DHT22;32278;51.810;4.712;2023-02-15T07:04:09;3.80;99.90
46552;DHT22;32278;51.810;4.712;2023-02-15T07:06:35;3.70;99.90
46552;DHT22;32278;51.810;4.712;2023-02-15T07:09:01;3.70;99.90
46552;DHT22;32278;51.810;4.712;2023-02-15T07:11:27;3.70;99.90
46552;DHT22;32278;51.810;4.712;2023-02-15T07:14:11;3.60;99.90
46552;DHT22;32278;51.810;4.712;2023-02-15T07:16:37;3.60;99.90
46552;DHT22;32278;51.810;4.712;2023-02-15T07:19:02;3.50;99.90
46552;DHT22;32278;51.810;4.712;2023-02-15T07:21:28;3.70;99.90
46552;DHT22;32278;51.810;4.712;2023-02-15T07:23:56;3.80;99.90
46552;DHT22;32278;51.810;4.712;2023-02-15T07:26:22;3.80;99.90
46552;DHT22;32278;51.810;4.712;2023-02-15T07:28:47;3.70;99.90
46552;DHT22;32278;51.810;4.712;2023-02-15T07:31:13;3.80;99.90
46552;DHT22;32278;51.810;4.712;2023-02-15T07:33:39;3.70;99.90
46552;DHT22;32278;51.810;4.712;2023-02-15T07:36:05;3.70;99.90
46552;DHT22;32278;51.810;4.712;2023-02-15T07:38:33;3.50;99.90
46552;DHT22;32278;51.810;4.712;2023-02-15T07:41:01;3.60;99.90
46552;DHT22;32278;51.810;4.712;2023-02-15T07:43:28;3.60;99.90
46552;DHT22;32278;51.810;4.712;2023-02-15T07:45:54;3.80;99.90
46552;DHT22;32278;51.810;4.712;2023-02-15T07:48:20;3.80;99.90
46552;DHT22;32278;51.810;4.712;2023-02-15T07:50:45;3.90;99.90
46552;DHT22;32278;51.810;4.712;2023-02-15T07:53:11;4.00;99.90
46552;DHT22;32278;51.810;4.712;2023-02-15T07:55:36;4.00;99.90
46552;DHT22;32278;51.810;4.712;2023-02-15T07:58:02;4.30;99.90
46552;DHT22;32278;51.810;4.712;2023-02-15T08:00:28;4.40;99.90
46552;DHT22;32278;51.810;4.712;2023-02-15T08:02:55;4.40;99.90
46552;DHT22;32278;51.810;4.712;2023-02-15T08:05:41;4.40;99.90
46552;DHT22;32278;51.810;4.712;2023-02-15T08:08:08;4.40;99.90
46552;DHT22;32278;51.810;4.712;2023-02-15T08:10:35;4.40;99.90
46552;DHT22;32278;51.810;4.712;2023-02-15T08:13:32;4.60;99.90
46552;DHT22;32278;51.810;4.712;2023-02-15T08:15:58;4.70;99.90
46552;DHT22;32278;51.810;4.712;2023-02-15T08:18:23;4.80;99.90
46552;DHT22;32278;51.810;4.712;2023-02-15T08:20:49;4.70;99.90
46552;DHT22;32278;51.810;4.712;2023-02-15T08:23:15;4.60;99.90
46552;DHT22;32278;51.810;4.712;2023-02-15T08:25:41;4.80;99.90
46552;DHT22;32278;51.810;4.712;2023-02-15T08:28:06;4.90;99.90
46552;DHT22;32278;51.810;4.712;2023-02-15T08:30:32;5.00;99.90
46552;DHT22;32278;51.810;4.712;2023-02-15T08:32:57;5.00;99.90
46552;DHT22;32278;51.810;4.712;2023-02-15T08:35:23;5.00;99.90
46552;DHT22;32278;51.810;4.712;2023-02-15T08:37:49;5.20;99.90
46552;DHT22;32278;51.810;4.712;2023-02-15T08:40:14;5.30;99.90
46552;DHT22;32278;51.810;4.712;2023-02-15T08:42:41;5.30;99.90
46552;DHT22;32278;51.810;4.712;2023-02-15T08:45:07;5.40;99.90
46552;DHT22;32278;51.810;4.712;2023-02-15T08:47:32;5.60;99.90
46552;DHT22;32278;51.810;4.712;2023-02-15T08:49:58;5.80;99.90
46552;DHT22;32278;51.810;4.712;2023-02-15T08:52:23;5.70;99.90
46552;DHT22;32278;51.810;4.712;2023-02-15T08:54:49;5.80;99.90
46552;DHT22;32278;51.810;4.712;2023-02-15T08:57:14;5.90;99.90
46552;DHT22;32278;51.810;4.712;2023-02-15T08:59:40;5.90;99.90
46552;DHT22;32278;51.810;4.712;2023-02-15T09:02:05;5.90;99.90
46552;DHT22;32278;51.810;4.712;2023-02-15T09:04:31;5.90;99.90
46552;DHT22;32278;51.810;4.712;2023-02-15T09:06:57;5.80;99.90
46552;DHT22;32278;51.810;4.712;2023-02-15T09:09:22;5.70;99.90
46552;DHT22;32278;51.810;4.712;2023-02-15T09:11:50;5.80;99.90
46552;DHT22;32278;51.810;4.712;2023-02-15T09:14:20;5.70;99.90
46552;DHT22;32278;51.810;4.712;2023-02-15T09:16:47;5.90;99.90
46552;DHT22;32278;51.810;4.712;2023-02-15T09:19:15;5.90;99.90
46552;DHT22;32278;51.810;4.712;2023-02-15T09:21:42;5.90;99.90
46552;DHT22;32278;51.810;4.712;2023-02-15T09:24:11;6.00;99.90
46552;DHT22;32278;51.810;4.712;2023-02-15T09:26:39;6.00;99.90
46552;DHT22;32278;51.810;4.712;2023-02-15T09:29:06;5.90;99.90
46552;DHT22;32278;51.810;4.712;2023-02-15T09:31:36;5.80;99.90
46552;DHT22;32278;51.810;4.712;2023-02-15T09:34:02;5.80;99.90
46552;DHT22;32278;51.810;4.712;2023-02-15T09:36:31;5.80;99.90
46552;DHT22;32278;51.810;4.712;2023-02-15T09:39:12;5.80;99.90
46552;DHT22;32278;51.810;4.712;2023-02-15T09:44:57;6.00;99.90
46552;DHT22;32278;51.810;4.712;2023-02-15T09:47:46;6.20;99.90
46552;DHT22;32278;51.810;4.712;2023-02-15T09:53:05;6.40;99.90
46552;DHT22;32278;51.810;4.712;2023-02-15T09:58:26;6.50;99.90
46552;DHT22;32278;51.810;4.712;2023-02-15T10:02:02;6.60;99.90
46552;DHT22;32278;51.810;4.712;2023-02-15T10:06:51;6.90;99.90
46552;DHT22;32278;51.810;4.712;2023-02-15T10:09:46;7.10;99.90
46552;DHT22;32278;51.810;4.712;2023-02-15T10:20:47;7.40;99.90
46552;DHT22;32278;51.810;4.712;2023-02-15T10:31:26;7.90;99.90
46552;DHT22;32278;51.810;4.712;2023-02-15T10:34:19;8.00;99.90
46552;DHT22;32278;51.810;4.712;2023-02-15T10:42:29;8.20;99.90
46552;DHT22;32278;51.810;4.712;2023-02-15T10:45:03;8.40;99.90
46552;DHT22;32278;51.810;4.712;2023-02-15T10:47:55;8.60;99.90
46552;DHT22;32278;51.810;4.712;2023-02-15T10:53:20;8.80;99.90
46552;DHT22;32278;51.810;4.712;2023-02-15T10:56:03;8.70;99.90
46552;DHT22;32278;51.810;4.712;2023-02-15T11:06:19;9.50;99.90
46552;DHT22;32278;51.810;4.712;2023-02-15T11:08:53;9.40;99.90
46552;DHT22;32278;51.810;4.712;2023-02-15T11:11:23;9.60;99.90
46552;DHT22;32278;51.810;4.712;2023-02-15T11:13:54;9.90;99.90
46552;DHT22;32278;51.810;4.712;2023-02-15T11:16:25;10.00;99.90
46552;DHT22;32278;51.810;4.712;2023-02-15T11:18:59;10.20;99.90
46552;DHT22;32278;51.810;4.712;2023-02-15T11:21:42;10.20;99.90
46552;DHT22;32278;51.810;4.712;2023-02-15T11:24:14;10.50;99.90
46552;DHT22;32278;51.810;4.712;2023-02-15T11:26:47;10.90;99.90
46552;DHT22;32278;51.810;4.712;2023-02-15T11:34:46;11.10;99.90
46552;DHT22;32278;51.810;4.712;2023-02-15T11:37:17;11.20;99.90
46552;DHT22;32278;51.810;4.712;2023-02-15T11:39:43;11.30;99.90
46552;DHT22;32278;51.810;4.712;2023-02-15T11:42:20;11.30;99.90
46552;DHT22;32278;51.810;4.712;2023-02-15T11:44:58;11.20;99.90
46552;DHT22;32278;51.810;4.712;2023-02-15T11:47:24;11.20;99.90
46552;DHT22;32278;51.810;4.712;2023-02-15T11:49:50;11.20;99.90
46552;DHT22;32278;51.810;4.712;2023-02-15T11:52:16;11.20;99.90
46552;DHT22;32278;51.810;4.712;2023-02-15T11:54:46;11.70;99.90
46552;DHT22;32278;51.810;4.712;2023-02-15T11:57:20;11.90;99.90
46552;DHT22;32278;51.810;4.712;2023-02-15T11:59:50;12.20;99.90
46552;DHT22;32278;51.810;4.712;2023-02-15T12:02:21;12.40;99.90
46552;DHT22;32278;51.810;4.712;2023-02-15T12:05:15;12.50;99.90
46552;DHT22;32278;51.810;4.712;2023-02-15T12:07:46;12.60;99.90
46552;DHT22;32278;51.810;4.712;2023-02-15T12:10:32;12.60;99.90
46552;DHT22;32278;51.810;4.712;2023-02-15T12:15:38;12.80;99.90
46552;DHT22;32278;51.810;4.712;2023-02-15T12:18:24;13.20;99.90
46552;DHT22;32278;51.810;4.712;2023-02-15T12:21:02;13.10;99.90
46552;DHT22;32278;51.810;4.712;2023-02-15T12:23:28;12.90;99.90
46552;DHT22;32278;51.810;4.712;2023-02-15T12:25:56;13.10;99.90
46552;DHT22;32278;51.810;4.712;2023-02-15T12:28:32;13.00;99.90
46552;DHT22;32278;51.810;4.712;2023-02-15T12:30:59;13.00;99.90
46552;DHT22;32278;51.810;4.712;2023-02-15T12:35:57;12.80;99.90
46552;DHT22;32278;51.810;4.712;2023-02-15T12:38:25;12.50;99.90
46552;DHT22;32278;51.810;4.712;2023-02-15T12:41:03;12.40;99.90
46552;DHT22;32278;51.810;4.712;2023-02-15T12:43:37;12.40;99.90
46552;DHT22;32278;51.810;4.712;2023-02-15T12:48:43;12.90;99.90
46552;DHT22;32278;51.810;4.712;2023-02-15T12:51:14;13.10;99.90
46552;DHT22;32278;51.810;4.712;2023-02-15T12:53:40;13.20;99.90
46552;DHT22;32278;51.810;4.712;2023-02-15T12:56:08;13.20;99.90
46552;DHT22;32278;51.810;4.712;2023-02-15T12:58:36;13.20;99.90
46552;DHT22;32278;51.810;4.712;2023-02-15T13:01:23;12.90;99.90
46552;DHT22;32278;51.810;4.712;2023-02-15T13:06:18;12.60;99.90
46552;DHT22;32278;51.810;4.712;2023-02-15T13:08:48;12.50;99.90
46552;DHT22;32278;51.810;4.712;2023-02-15T13:11:26;12.50;99.90
46552;DHT22;32278;51.810;4.712;2023-02-15T13:14:01;12.40;99.90
46552;DHT22;32278;51.810;4.712;2023-02-15T13:16:33;12.30;99.90
46552;DHT22;32278;51.810;4.712;2023-02-15T13:19:06;12.40;99.90
46552;DHT22;32278;51.810;4.712;2023-02-15T13:21:39;12.40;99.90
46552;DHT22;32278;51.810;4.712;2023-02-15T13:24:15;12.50;99.90
46552;DHT22;32278;51.810;4.712;2023-02-15T13:26:43;12.40;99.90
46552;DHT22;32278;51.810;4.712;2023-02-15T13:29:28;12.30;99.90
46552;DHT22;32278;51.810;4.712;2023-02-15T13:31:56;12.30;99.90
46552;DHT22;32278;51.810;4.712;2023-02-15T13:34:34;12.30;99.90
46552;DHT22;32278;51.810;4.712;2023-02-15T13:37:16;12.30;99.90
46552;DHT22;32278;51.810;4.712;2023-02-15T13:39:44;12.40;99.90
46552;DHT22;32278;51.810;4.712;2023-02-15T13:42:26;12.30;99.90
46552;DHT22;32278;51.810;4.712;2023-02-15T13:47:53;12.20;99.90
46552;DHT22;32278;51.810;4.712;2023-02-15T14:07:10;12.10;99.90
46552;DHT22;32278;51.810;4.712;2023-02-15T14:09:51;12.00;99.90
46552;DHT22;32278;51.810;4.712;2023-02-15T14:12:46;12.00;99.90
46552;DHT22;32278;51.810;4.712;2023-02-15T14:15:51;12.00;99.90
46552;DHT22;32278;51.810;4.712;2023-02-15T14:18:27;12.10;99.90
46552;DHT22;32278;51.810;4.712;2023-02-15T14:21:17;12.00;99.90
46552;DHT22;32278;51.810;4.712;2023-02-15T14:26:24;12.00;99.90
46552;DHT22;32278;51.810;4.712;2023-02-15T14:31:50;12.00;99.90
46552;DHT22;32278;51.810;4.712;2023-02-15T14:34:43;12.00;99.90
46552;DHT22;32278;51.810;4.712;2023-02-15T14:37:11;11.90;99.90
46552;DHT22;32278;51.810;4.712;2023-02-15T14:40:03;12.00;99.90
46552;DHT22;32278;51.810;4.712;2023-02-15T14:42:57;12.00;99.90
46552;DHT22;32278;51.810;4.712;2023-02-15T14:45:49;11.90;99.90
46552;DHT22;32278;51.810;4.712;2023-02-15T14:48:20;12.00;99.90
46552;DHT22;32278;51.810;4.712;2023-02-15T14:50:47;11.90;99.90
46552;DHT22;32278;51.810;4.712;2023-02-15T14:56:15;11.80;99.90
46552;DHT22;32278;51.810;4.712;2023-02-15T15:01:15;11.70;99.90
46552;DHT22;32278;51.810;4.712;2023-02-15T15:03:50;11.70;99.90
46552;DHT22;32278;51.810;4.712;2023-02-15T15:06:56;11.70;99.90
46552;DHT22;32278;51.810;4.712;2023-02-15T15:09:26;11.50;99.90
46552;DHT22;32278;51.810;4.712;2023-02-15T15:11:54;11.50;99.90
46552;DHT22;32278;51.810;4.712;2023-02-15T15:14:40;11.50;99.90
46552;DHT22;32278;51.810;4.712;2023-02-15T15:17:10;11.50;99.90
46552;DHT22;32278;51.810;4.712;2023-02-15T15:27:45;11.70;99.90
46552;DHT22;32278;51.810;4.712;2023-02-15T15:48:42;11.70;99.90
46552;DHT22;32278;51.810;4.712;2023-02-15T15:51:18;11.50;99.90
46552;DHT22;32278;51.810;4.712;2023-02-15T15:53:47;11.40;99.90
46552;DHT22;32278;51.810;4.712;2023-02-15T15:56:20;11.40;99.90
46552;DHT22;32278;51.810;4.712;2023-02-15T15:58:51;11.40;99.90
46552;DHT22;32278;51.810;4.712;2023-02-15T16:01:24;11.40;99.90
46552;DHT22;32278;51.810;4.712;2023-02-15T16:03:53;11.30;99.90
46552;DHT22;32278;51.810;4.712;2023-02-15T16:08:55;11.40;99.90
46552;DHT22;32278;51.810;4.712;2023-02-15T16:11:27;11.40;99.90
46552;DHT22;32278;51.810;4.712;2023-02-15T16:13:54;11.30;99.90
46552;DHT22;32278;51.810;4.712;2023-02-15T16:16:25;11.30;99.90
46552;DHT22;32278;51.810;4.712;2023-02-15T16:18:54;11.30;99.90
46552;DHT22;32278;51.810;4.712;2023-02-15T16:21:27;11.30;99.90
46552;DHT22;32278;51.810;4.712;2023-02-15T16:27:07;11.30;99.90
46552;DHT22;32278;51.810;4.712;2023-02-15T16:29:36;11.10;99.90
46552;DHT22;32278;51.810;4.712;2023-02-15T16:32:16;11.10;99.90
46552;DHT22;32278;51.810;4.712;2023-02-15T16:37:23;11.10;99.90
46552;DHT22;32278;51.810;4.712;2023-02-15T16:39:51;11.00;99.90
46552;DHT22;32278;51.810;4.712;2023-02-15T16:42:17;11.00;99.90
46552;DHT22;32278;51.810;4.712;2023-02-15T16:44:48;10.90;99.90
46552;DHT22;32278;51.810;4.712;2023-02-15T16:47:21;10.90;99.90
46552;DHT22;32278;51.810;4.712;2023-02-15T16:49:49;10.80;99.90
46552;DHT22;32278;51.810;4.712;2023-02-15T16:52:23;10.70;99.90
46552;DHT22;32278;51.810;4.712;2023-02-15T16:54:56;10.60;99.90
46552;DHT22;32278;51.810;4.712;2023-02-15T16:57:26;10.60;99.90
46552;DHT22;32278;51.810;4.712;2023-02-15T16:59:55;10.50;99.90
46552;DHT22;32278;51.810;4.712;2023-02-15T17:02:28;10.40;99.90
46552;DHT22;32278;51.810;4.712;2023-02-15T17:07:40;10.30;99.90
46552;DHT22;32278;51.810;4.712;2023-02-15T17:10:34;10.30;99.90
46552;DHT22;32278;51.810;4.712;2023-02-15T17:13:14;10.20;99.90
46552;DHT22;32278;51.810;4.712;2023-02-15T17:15:44;10.20;99.90
46552;DHT22;32278;51.810;4.712;2023-02-15T17:18:18;10.10;99.90
46552;DHT22;32278;51.810;4.712;2023-02-15T17:20:46;10.10;99.90
46552;DHT22;32278;51.810;4.712;2023-02-15T17:23:33;10.10;99.90
46552;DHT22;32278;51.810;4.712;2023-02-15T17:26:02;10.00;99.90
46552;DHT22;32278;51.810;4.712;2023-02-15T17:28:35;9.90;99.90
46552;DHT22;32278;51.810;4.712;2023-02-15T17:31:06;9.90;99.90
46552;DHT22;32278;51.810;4.712;2023-02-15T17:38:34;9.90;99.90
46552;DHT22;32278;51.810;4.712;2023-02-15T17:41:00;9.80;99.90
46552;DHT22;32278;51.810;4.712;2023-02-15T17:43:25;9.80;99.90
46552;DHT22;32278;51.810;4.712;2023-02-15T17:45:51;9.70;99.90
46552;DHT22;32278;51.810;4.712;2023-02-15T17:48:40;9.70;99.90
46552;DHT22;32278;51.810;4.712;2023-02-15T17:51:11;9.70;99.90
46552;DHT22;32278;51.810;4.712;2023-02-15T17:53:37;9.70;99.90
46552;DHT22;32278;51.810;4.712;2023-02-15T17:56:03;9.70;99.90
46552;DHT22;32278;51.810;4.712;2023-02-15T17:58:36;9.60;99.90
46552;DHT22;32278;51.810;4.712;2023-02-15T18:01:09;9.60;99.90
46552;DHT22;32278;51.810;4.712;2023-02-15T18:03:54;9.60;99.90
46552;DHT22;32278;51.810;4.712;2023-02-15T18:06:40;9.50;99.90
46552;DHT22;32278;51.810;4.712;2023-02-15T18:09:25;9.40;99.90
46552;DHT22;32278;51.810;4.712;2023-02-15T18:12:26;9.50;99.90
46552;DHT22;32278;51.810;4.712;2023-02-15T18:14:53;9.50;99.90
46552;DHT22;32278;51.810;4.712;2023-02-15T18:17:23;9.50;99.90
46552;DHT22;32278;51.810;4.712;2023-02-15T18:19:49;9.50;99.90
46552;DHT22;32278;51.810;4.712;2023-02-15T18:22:17;9.50;99.90
46552;DHT22;32278;51.810;4.712;2023-02-15T18:24:44;9.50;99.90
46552;DHT22;32278;51.810;4.712;2023-02-15T18:27:11;9.50;99.90
46552;DHT22;32278;51.810;4.712;2023-02-15T18:29:37;9.50;99.90
46552;DHT22;32278;51.810;4.712;2023-02-15T18:32:06;9.50;99.90
46552;DHT22;32278;51.810;4.712;2023-02-15T18:34:37;9.50;99.90
46552;DHT22;32278;51.810;4.712;2023-02-15T18:37:06;9.40;99.90
46552;DHT22;32278;51.810;4.712;2023-02-15T18:39:45;9.40;99.90
46552;DHT22;32278;51.810;4.712;2023-02-15T18:42:25;9.40;99.90
46552;DHT22;32278;51.810;4.712;2023-02-15T18:44:57;9.50;99.90